createdAt,value
2018-10-19T00:00:00.038Z,5.70
2018-10-19T00:02:28.856Z,6.60
2018-10-19T00:04:57.704Z,7.03
2018-10-19T00:07:26.561Z,4.60
2018-10-19T00:09:55.417Z,8.67
2018-10-19T00:12:24.247Z,5.87
2018-10-19T00:14:53.075Z,9.13
2018-10-19T00:17:21.984Z,8.43
2018-10-19T00:19:50.825Z,6.37
2018-10-19T00:22:19.669Z,7.07
2018-10-19T00:24:48.480Z,7.70
2018-10-19T00:27:17.319Z,5.83
2018-10-19T00:29:46.112Z,9.83
2018-10-19T00:32:15.036Z,4.80
2018-10-19T00:34:43.887Z,9.30
2018-10-19T00:37:12.784Z,3.80
2018-10-19T00:39:41.644Z,5.70
2018-10-19T00:42:10.419Z,6.03
2018-10-19T00:44:39.398Z,7.63
2018-10-19T00:47:08.302Z,9.37
2018-10-19T00:49:37.113Z,6.10
2018-10-19T00:52:06.387Z,4.43
2018-10-19T00:54:35.236Z,6.83
2018-10-19T00:57:04.089Z,9.37
2018-10-19T00:59:32.953Z,6.93
2018-10-19T01:02:01.857Z,5.33
2018-10-19T01:04:30.958Z,4.17
2018-10-19T01:06:59.835Z,2.97
2018-10-19T01:09:28.695Z,5.27
2018-10-19T01:11:57.562Z,5.03
2018-10-19T01:14:26.445Z,5.13
2018-10-19T01:16:55.336Z,5.03
2018-10-19T01:19:24.252Z,5.67
2018-10-19T01:21:53.125Z,5.93
2018-10-19T01:24:21.962Z,6.17
2018-10-19T01:26:50.860Z,11.13
2018-10-19T01:29:19.664Z,4.47
2018-10-19T01:31:48.496Z,6.73
2018-10-19T01:34:17.293Z,4.80
2018-10-19T01:36:46.588Z,6.10
2018-10-19T01:39:15.547Z,6.60
2018-10-19T01:41:44.809Z,7.60
2018-10-19T01:44:13.623Z,6.30
2018-10-19T01:46:47.565Z,10.30
2018-10-19T01:49:16.832Z,4.93
2018-10-19T01:51:45.667Z,5.57
2018-10-19T01:54:14.491Z,7.40
2018-10-19T01:56:43.314Z,11.70
2018-10-19T01:59:12.188Z,8.40
2018-10-19T02:01:41.114Z,5.03
2018-10-19T02:04:09.978Z,6.47
2018-10-19T02:06:38.794Z,4.73
2018-10-19T02:09:08.256Z,4.57
2018-10-19T02:11:37.083Z,4.07
2018-10-19T02:14:06.082Z,8.73
2018-10-19T02:16:35.028Z,10.43
2018-10-19T02:19:03.878Z,4.33
2018-10-19T02:21:32.728Z,9.47
2018-10-19T02:24:01.567Z,6.33
2018-10-19T02:26:30.408Z,5.17
2018-10-19T02:28:59.208Z,3.90
2018-10-19T02:31:28.085Z,4.90
2018-10-19T02:33:56.894Z,6.57
2018-10-19T02:36:25.782Z,5.73
2018-10-19T02:38:54.659Z,7.67
2018-10-19T02:41:23.508Z,5.83
2018-10-19T02:43:52.312Z,7.20
2018-10-19T02:46:21.145Z,6.53
2018-10-19T02:48:49.946Z,5.90
2018-10-19T02:51:18.907Z,7.97
2018-10-19T02:53:47.708Z,6.03
2018-10-19T02:56:16.580Z,8.27
2018-10-19T02:58:45.393Z,5.07
2018-10-19T03:01:14.218Z,8.40
2018-10-19T03:03:43.066Z,7.47
2018-10-19T03:06:11.896Z,4.43
2018-10-19T03:08:40.740Z,6.83
2018-10-19T03:11:09.618Z,5.07
2018-10-19T03:13:38.466Z,7.90
2018-10-19T03:16:07.274Z,7.20
2018-10-19T03:18:36.147Z,9.33
2018-10-19T03:21:05.360Z,2.17
2018-10-19T03:23:34.241Z,3.50
2018-10-19T03:26:03.022Z,5.63
2018-10-19T03:28:31.862Z,9.37
2018-10-19T03:31:00.781Z,11.57
2018-10-19T03:33:29.595Z,6.17
2018-10-19T03:35:58.405Z,6.30
2018-10-19T03:38:27.252Z,7.83
2018-10-19T03:40:56.149Z,3.60
2018-10-19T03:43:24.957Z,7.57
2018-10-19T03:45:53.829Z,6.57
2018-10-19T03:48:22.646Z,2.83
2018-10-19T03:50:51.484Z,6.93
2018-10-19T03:53:20.463Z,10.67
2018-10-19T03:55:49.253Z,8.60
2018-10-19T03:58:18.101Z,6.93
2018-10-19T04:00:46.936Z,3.60
2018-10-19T04:03:15.929Z,8.10
2018-10-19T04:05:44.784Z,7.73
2018-10-19T04:08:13.576Z,10.10
2018-10-19T04:10:42.426Z,5.03
2018-10-19T04:13:11.245Z,6.97
2018-10-19T04:15:40.098Z,5.67
2018-10-19T04:18:09.091Z,4.77
2018-10-19T04:20:37.941Z,6.80
2018-10-19T04:23:08.913Z,7.60
2018-10-19T04:25:38.927Z,11.40
2018-10-19T04:28:07.766Z,6.30
2018-10-19T04:30:37.613Z,5.70
2018-10-19T04:33:07.055Z,9.07
2018-10-19T04:35:35.962Z,6.00
2018-10-19T04:38:04.884Z,4.00
2018-10-19T04:40:33.758Z,6.30
2018-10-19T04:43:02.558Z,7.40
2018-10-19T04:45:31.386Z,6.33
2018-10-19T04:48:00.219Z,8.50
2018-10-19T04:50:29.096Z,5.37
2018-10-19T04:52:58.005Z,6.03
2018-10-19T04:55:26.860Z,6.40
2018-10-19T04:57:55.682Z,9.30
2018-10-19T05:00:24.554Z,12.90
2018-10-19T05:02:53.448Z,7.70
2018-10-19T05:05:22.417Z,12.10
2018-10-19T05:07:51.246Z,8.40
2018-10-19T05:10:20.087Z,6.50
2018-10-19T05:12:49.006Z,7.47
2018-10-19T05:15:17.814Z,4.57
2018-10-19T05:17:46.676Z,4.63
2018-10-19T05:20:15.593Z,7.80
2018-10-19T05:22:44.431Z,8.10
2018-10-19T05:25:13.695Z,7.50
2018-10-19T05:27:42.549Z,7.93
2018-10-19T05:30:12.589Z,6.20
2018-10-19T05:32:42.435Z,7.37
2018-10-19T05:35:11.309Z,10.40
2018-10-19T05:37:40.952Z,10.90
2018-10-19T05:40:10.875Z,8.00
2018-10-19T05:42:40.187Z,11.70
2018-10-19T05:45:11.647Z,8.07
2018-10-19T05:47:40.710Z,3.13
2018-10-19T05:50:11.105Z,10.67
2018-10-19T05:52:40.122Z,6.97
2018-10-19T05:55:09.818Z,5.63
2018-10-19T05:57:38.630Z,7.00
2018-10-19T06:00:08.659Z,6.53
2018-10-19T06:02:37.549Z,5.70
2018-10-19T06:05:07.300Z,9.50
2018-10-19T06:07:36.165Z,7.00
2018-10-19T06:10:06.129Z,7.23
2018-10-19T06:12:34.951Z,12.00
2018-10-19T06:15:03.975Z,7.70
2018-10-19T06:17:32.814Z,10.23
2018-10-19T06:20:01.688Z,11.20
2018-10-19T06:22:30.566Z,8.77
2018-10-19T06:24:59.374Z,7.60
2018-10-19T06:27:28.211Z,6.10
2018-10-19T06:29:57.015Z,5.07
2018-10-19T06:32:25.855Z,6.53
2018-10-19T06:34:54.730Z,11.87
2018-10-19T06:37:23.611Z,3.90
2018-10-19T06:39:52.846Z,6.23
2018-10-19T06:42:22.156Z,6.30
2018-10-19T06:44:51.246Z,5.70
2018-10-19T06:47:20.228Z,4.03
2018-10-19T06:49:49.037Z,6.10
2018-10-19T06:52:17.963Z,6.80
2018-10-19T06:54:47.067Z,4.90
2018-10-19T06:57:16.008Z,6.83
2018-10-19T06:59:44.835Z,7.63
2018-10-19T07:02:13.821Z,22.33
2018-10-19T07:04:42.848Z,9.07
2018-10-19T07:07:11.723Z,7.57
2018-10-19T07:09:40.525Z,15.27
2018-10-19T07:12:09.515Z,8.30
2018-10-19T07:14:38.524Z,3.70
2018-10-19T07:17:07.441Z,20.90
2018-10-19T07:19:36.311Z,14.67
2018-10-19T07:22:06.081Z,11.23
2018-10-19T07:24:34.905Z,11.03
2018-10-19T07:27:03.783Z,12.63
2018-10-19T07:29:32.624Z,10.53
2018-10-19T07:32:01.629Z,8.47
2018-10-19T07:34:30.453Z,9.30
2018-10-19T07:36:59.328Z,8.17
2018-10-19T07:39:28.144Z,9.70
2018-10-19T07:41:57.524Z,6.37
2018-10-19T07:44:26.396Z,5.97
2018-10-19T07:46:55.298Z,7.97
2018-10-19T07:49:24.320Z,7.37
2018-10-19T07:51:53.359Z,8.27
2018-10-19T07:54:22.268Z,7.23
2018-10-19T07:56:51.080Z,8.10
2018-10-19T07:59:19.956Z,11.57
2018-10-19T08:01:48.772Z,4.73
2018-10-19T08:04:17.685Z,10.33
2018-10-19T08:06:46.579Z,2.70
2018-10-19T08:09:15.488Z,5.30
2018-10-19T08:11:44.412Z,8.17
2018-10-19T08:14:14.389Z,6.57
2018-10-19T08:16:43.247Z,6.47
2018-10-19T08:19:12.199Z,7.43
2018-10-19T08:21:41.019Z,8.47
2018-10-19T08:24:10.403Z,8.10
2018-10-19T08:26:39.870Z,6.43
2018-10-19T08:29:09.529Z,11.37
2018-10-19T08:31:40.050Z,6.43
2018-10-19T08:34:09.407Z,7.30
2018-10-19T08:36:38.976Z,3.80
2018-10-19T08:39:26.288Z,7.33
2018-10-19T08:42:03.594Z,8.33
2018-10-19T08:44:41.450Z,7.23
2018-10-19T08:47:10.956Z,5.20
2018-10-19T08:49:56.519Z,9.80
2018-10-19T08:52:26.232Z,13.10
2018-10-19T08:54:55.200Z,8.97
2018-10-19T08:57:24.120Z,9.27
2018-10-19T08:59:53.072Z,7.47
2018-10-19T09:02:22.285Z,7.23
2018-10-19T09:04:51.218Z,8.50
2018-10-19T09:07:20.107Z,7.40
2018-10-19T09:09:49.022Z,6.53
2018-10-19T09:12:17.862Z,6.47
2018-10-19T09:14:53.737Z,6.43
2018-10-19T09:17:22.663Z,7.07
2018-10-19T09:19:51.914Z,6.33
2018-10-19T09:22:21.248Z,5.57
2018-10-19T09:24:50.264Z,8.00
2018-10-19T09:27:19.261Z,7.60
2018-10-19T09:29:48.087Z,11.07
2018-10-19T09:32:17.230Z,9.63
2018-10-19T09:34:46.201Z,4.07
2018-10-19T09:37:15.205Z,9.93
2018-10-19T09:39:44.007Z,5.20
2018-10-19T09:42:13.136Z,7.57
2018-10-19T09:44:42.090Z,8.27
2018-10-19T09:47:11.100Z,6.00
2018-10-19T09:49:40.027Z,6.20
2018-10-19T09:52:08.923Z,6.07
2018-10-19T09:54:37.804Z,9.53
2018-10-19T09:57:06.972Z,3.63
2018-10-19T09:59:35.892Z,7.13
2018-10-19T10:02:04.899Z,5.03
2018-10-19T10:04:33.810Z,3.00
2018-10-19T10:07:02.761Z,4.07
2018-10-19T10:09:31.633Z,3.67
2018-10-19T10:12:00.469Z,5.53
2018-10-19T10:14:29.373Z,7.03
2018-10-19T10:16:58.442Z,6.13
2018-10-19T10:19:27.321Z,7.00
2018-10-19T10:21:56.170Z,4.87
2018-10-19T10:24:25.052Z,4.93
2018-10-19T10:26:54.099Z,4.27
2018-10-19T10:29:23.098Z,9.10
2018-10-19T10:31:52.131Z,8.10
2018-10-19T10:34:21.794Z,6.10
2018-10-19T10:36:50.835Z,3.93
2018-10-19T10:39:19.750Z,5.53
2018-10-19T10:41:48.673Z,4.47
2018-10-19T10:44:18.629Z,10.07
2018-10-19T10:46:47.622Z,6.03
2018-10-19T10:49:16.471Z,4.83
2018-10-19T10:51:45.322Z,4.60
2018-10-19T10:54:14.253Z,4.70
2018-10-19T10:56:44.268Z,6.60
2018-10-19T10:59:13.116Z,6.70
2018-10-19T11:01:42.067Z,7.17
2018-10-19T11:04:11.060Z,3.03
2018-10-19T11:06:40.043Z,4.87
2018-10-19T11:09:10.629Z,6.17
2018-10-19T11:11:39.559Z,4.90
2018-10-19T11:14:08.511Z,7.40
2018-10-19T11:16:37.370Z,5.93
2018-10-19T11:19:06.280Z,6.37
2018-10-19T11:21:35.189Z,2.63
2018-10-19T11:24:04.254Z,1.93
2018-10-19T11:26:33.542Z,3.30
2018-10-19T11:29:02.611Z,5.47
2018-10-19T11:31:31.544Z,6.67
2018-10-19T11:34:00.626Z,4.83
2018-10-19T11:36:29.685Z,4.97
2018-10-19T11:38:58.715Z,2.93
2018-10-19T11:41:27.675Z,6.33
2018-10-19T11:43:56.628Z,2.30
2018-10-19T11:46:25.565Z,5.90
2018-10-19T11:48:54.620Z,5.13
2018-10-19T11:51:23.499Z,4.63
2018-10-19T11:53:52.422Z,3.30
2018-10-19T11:56:21.416Z,4.47
2018-10-19T11:58:50.266Z,3.93
2018-10-19T12:01:19.192Z,2.60
2018-10-19T12:03:48.858Z,3.90
2018-10-19T12:06:17.661Z,3.17
2018-10-19T12:08:46.511Z,3.13
2018-10-19T12:11:15.487Z,5.67
2018-10-19T12:13:44.311Z,4.43
2018-10-19T12:16:13.255Z,5.03
2018-10-19T12:18:42.092Z,8.10
2018-10-19T12:21:11.010Z,2.60
2018-10-19T12:23:39.804Z,6.03
2018-10-19T12:26:08.738Z,6.37
2018-10-19T12:28:37.620Z,3.67
2018-10-19T12:31:06.638Z,4.77
2018-10-19T12:33:35.501Z,4.10
2018-10-19T12:36:04.968Z,8.30
2018-10-19T12:38:33.937Z,7.70
2018-10-19T12:41:02.789Z,4.23
2018-10-19T12:43:31.646Z,3.87
2018-10-19T12:46:21.310Z,2.07
2018-10-19T12:48:50.363Z,2.97
2018-10-19T12:51:19.815Z,4.53
2018-10-19T12:53:48.861Z,2.50
2018-10-19T12:56:18.967Z,6.97
2018-10-19T12:58:48.929Z,3.60
2018-10-19T13:01:18.069Z,3.10
2018-10-19T13:03:46.954Z,7.80
2018-10-19T13:06:16.054Z,3.00
2018-10-19T13:08:44.944Z,5.90
2018-10-19T13:11:13.996Z,3.53
2018-10-19T13:13:42.868Z,3.90
2018-10-19T13:16:11.683Z,2.80
2018-10-19T13:18:40.872Z,3.33
2018-10-19T13:21:09.737Z,7.43
2018-10-19T13:23:38.688Z,8.20
2018-10-19T13:26:08.108Z,6.50
2018-10-19T13:28:37.284Z,6.70
2018-10-19T13:31:07.238Z,4.33
2018-10-19T13:33:36.114Z,6.67
2018-10-19T13:36:05.304Z,2.17
2018-10-19T13:38:34.216Z,2.07
2018-10-19T13:41:03.028Z,5.07
2018-10-19T13:43:31.892Z,3.90
2018-10-19T13:46:00.887Z,2.80
2018-10-19T13:48:29.758Z,5.73
2018-10-19T13:50:59.075Z,5.90
2018-10-19T13:53:27.967Z,7.43
2018-10-19T13:55:56.858Z,5.37
2018-10-19T13:58:25.851Z,5.43
2018-10-19T14:00:54.857Z,9.90
2018-10-19T14:03:23.718Z,9.30
2018-10-19T14:05:52.629Z,9.63
2018-10-19T14:08:21.461Z,10.97
2018-10-19T14:10:50.330Z,3.67
2018-10-19T14:13:19.242Z,2.87
2018-10-19T14:15:48.124Z,3.57
2018-10-19T14:18:17.116Z,4.37
2018-10-19T14:20:46.046Z,5.73
2018-10-19T14:23:15.014Z,4.40
2018-10-19T14:25:44.004Z,5.43
2018-10-19T14:28:12.880Z,8.57
2018-10-19T14:30:41.914Z,4.90
2018-10-19T14:33:10.901Z,4.17
2018-10-19T14:35:39.709Z,3.53
2018-10-19T14:38:08.584Z,5.07
2018-10-19T14:40:37.499Z,2.83
2018-10-19T14:43:06.569Z,5.27
2018-10-19T14:45:35.441Z,4.03
2018-10-19T14:48:04.509Z,6.67
2018-10-19T14:50:33.555Z,2.20
2018-10-19T14:53:02.580Z,5.67
2018-10-19T14:55:31.585Z,5.47
2018-10-19T14:58:00.512Z,12.60
2018-10-19T15:00:29.386Z,4.63
2018-10-19T15:02:58.293Z,4.73
2018-10-19T15:05:27.246Z,3.60
2018-10-19T15:07:56.290Z,4.93
2018-10-19T15:10:25.461Z,5.23
2018-10-19T15:12:54.371Z,5.60
2018-10-19T15:15:23.884Z,6.17
2018-10-19T15:17:52.865Z,1.93
2018-10-19T15:20:21.925Z,3.73
2018-10-19T15:22:50.924Z,4.77
2018-10-19T15:25:20.034Z,5.30
2018-10-19T15:27:48.972Z,4.23
2018-10-19T15:30:19.201Z,6.60
2018-10-19T15:32:48.137Z,5.07
2018-10-19T15:35:18.105Z,4.27
2018-10-19T15:37:47.191Z,1.30
2018-10-19T15:40:18.166Z,8.53
2018-10-19T15:42:47.123Z,8.83
2018-10-19T15:45:16.275Z,3.90
2018-10-19T15:47:45.437Z,6.30
2018-10-19T15:50:14.487Z,5.40
2018-10-19T15:52:43.592Z,6.83
2018-10-19T15:55:12.689Z,5.03
2018-10-19T15:57:41.559Z,4.47
2018-10-19T16:00:11.082Z,5.30
2018-10-19T16:02:40.027Z,12.07
2018-10-19T16:05:09.057Z,9.10
2018-10-19T16:07:38.243Z,10.10
2018-10-19T16:10:07.811Z,4.13
2018-10-19T16:12:36.891Z,4.87
2018-10-19T16:15:07.947Z,5.07
2018-10-19T16:17:37.637Z,11.33
2018-10-19T16:20:08.416Z,6.80
2018-10-19T16:22:37.527Z,5.13
2018-10-19T16:25:07.102Z,5.10
2018-10-19T16:27:36.619Z,10.63
2018-10-19T16:30:06.400Z,4.83
2018-10-19T16:32:35.276Z,8.67
2018-10-19T16:35:04.183Z,6.53
2018-10-19T16:37:33.025Z,7.73
2018-10-19T16:40:01.960Z,7.53
2018-10-19T16:42:30.933Z,11.10
2018-10-19T16:44:59.875Z,8.00
2018-10-19T16:47:28.822Z,10.83
2018-10-19T16:49:58.758Z,6.47
2018-10-19T16:52:27.702Z,6.83
2018-10-19T16:54:56.558Z,11.87
2018-10-19T16:57:25.384Z,8.77
2018-10-19T16:59:54.306Z,7.17
2018-10-19T17:02:23.460Z,12.73
2018-10-19T17:04:52.414Z,9.47
2018-10-19T17:07:21.386Z,5.67
2018-10-19T17:09:50.423Z,12.47
2018-10-19T17:12:19.277Z,19.27
2018-10-19T17:14:48.114Z,20.73
2018-10-19T17:17:17.218Z,19.97
2018-10-19T17:19:46.070Z,19.33
2018-10-19T17:22:14.977Z,16.10
2018-10-19T17:24:44.670Z,21.50
2018-10-19T17:27:14.068Z,24.97
2018-10-19T17:29:43.209Z,18.77
2018-10-19T17:32:12.101Z,18.70
2018-10-19T17:34:40.990Z,15.07
2018-10-19T17:37:10.177Z,18.67
2018-10-19T17:39:39.462Z,17.77
2018-10-19T17:42:08.950Z,17.53
2018-10-19T17:44:37.717Z,19.37
2018-10-19T17:47:06.967Z,17.57
2018-10-19T17:49:35.838Z,17.83
2018-10-19T17:52:04.661Z,18.50
2018-10-19T17:54:33.622Z,14.97
2018-10-19T17:57:04.071Z,18.07
2018-10-19T17:59:33.453Z,17.37
2018-10-19T18:02:05.781Z,14.80
2018-10-19T18:04:34.663Z,16.27
2018-10-19T18:07:03.986Z,19.50
2018-10-19T18:09:32.840Z,16.80
2018-10-19T18:12:01.846Z,18.50
2018-10-19T18:14:30.913Z,29.40
2018-10-19T18:16:59.895Z,25.27
2018-10-19T18:19:28.755Z,18.13
2018-10-19T18:21:57.998Z,21.97
2018-10-19T18:24:26.741Z,15.43
2018-10-19T18:26:55.854Z,20.07
2018-10-19T18:29:25.019Z,19.07
2018-10-19T18:31:54.101Z,19.30
2018-10-19T18:34:23.192Z,20.47
2018-10-19T18:36:52.225Z,22.27
2018-10-19T18:39:22.076Z,18.83
2018-10-19T18:41:51.375Z,22.37
2018-10-19T18:44:20.315Z,29.03
2018-10-19T18:46:49.923Z,33.77
2018-10-19T18:49:20.840Z,34.30
2018-10-19T18:51:50.233Z,34.30
2018-10-19T18:54:19.309Z,31.13
2018-10-19T18:56:48.319Z,30.67
2018-10-19T18:59:17.205Z,27.97
2018-10-19T19:01:48.311Z,43.30
2018-10-19T19:04:18.169Z,43.37
2018-10-19T19:06:47.300Z,36.63
2018-10-19T19:09:16.312Z,40.37
2018-10-19T19:11:45.281Z,37.13
2018-10-19T19:14:14.236Z,39.37
2018-10-19T19:16:45.012Z,25.70
2018-10-19T19:19:14.672Z,27.90
2018-10-19T19:21:44.521Z,22.27
2018-10-19T19:24:18.778Z,20.37
2018-10-19T19:26:47.647Z,18.50
2018-10-19T19:29:16.645Z,19.17
2018-10-19T19:31:45.504Z,19.60
2018-10-19T19:34:33.965Z,18.40
2018-10-19T19:37:04.046Z,17.87
2018-10-19T19:39:32.958Z,17.07
2018-10-19T19:42:07.195Z,15.03
2018-10-19T19:44:36.088Z,15.77
2018-10-19T19:47:06.405Z,14.33
2018-10-19T19:49:38.036Z,11.53
2018-10-19T19:52:07.057Z,10.67
2018-10-19T19:54:36.091Z,17.83
2018-10-19T19:57:05.087Z,12.00
2018-10-19T19:59:34.714Z,14.77
2018-10-19T20:02:03.630Z,14.03
2018-10-19T20:04:32.573Z,10.80
2018-10-19T20:07:01.457Z,10.20
2018-10-19T20:09:31.123Z,12.23
2018-10-19T20:12:00.177Z,16.43
2018-10-19T20:14:29.012Z,23.70
2018-10-19T20:16:57.959Z,16.87
2018-10-19T20:19:26.977Z,12.23
2018-10-19T20:21:55.969Z,10.87
2018-10-19T20:24:24.926Z,11.33
2018-10-19T20:26:53.782Z,10.50
2018-10-19T20:29:22.868Z,10.60
2018-10-19T20:31:51.891Z,8.80
2018-10-19T20:34:20.863Z,14.40
2018-10-19T20:36:49.810Z,8.53
2018-10-19T20:39:18.740Z,12.07
2018-10-19T20:41:47.680Z,13.27
2018-10-19T20:44:16.620Z,9.40
2018-10-19T20:46:45.554Z,10.60
2018-10-19T20:49:14.527Z,11.57
2018-10-19T20:51:43.641Z,11.33
2018-10-19T20:54:12.671Z,12.77
2018-10-19T20:56:41.574Z,11.23
2018-10-19T20:59:10.536Z,13.80
2018-10-19T21:01:39.509Z,15.37
2018-10-19T21:04:08.531Z,18.63
2018-10-19T21:06:37.590Z,16.20
2018-10-19T21:09:09.719Z,21.13
2018-10-19T21:11:39.325Z,16.63
2018-10-19T21:14:08.495Z,22.13
2018-10-19T21:16:37.678Z,22.40
2018-10-19T21:19:06.620Z,18.50
2018-10-19T21:21:35.658Z,15.37
2018-10-19T21:24:04.575Z,13.83
2018-10-19T21:26:33.444Z,11.73
2018-10-19T21:29:02.453Z,14.87
2018-10-19T21:31:31.322Z,11.47
2018-10-19T21:34:00.241Z,12.70
2018-10-19T21:36:29.221Z,13.93
2018-10-19T21:38:58.098Z,10.90
2018-10-19T21:41:26.992Z,11.53
2018-10-19T21:43:55.965Z,15.00
2018-10-19T21:46:24.950Z,12.77
2018-10-19T21:48:54.216Z,12.23
2018-10-19T21:51:23.156Z,16.57
2018-10-19T21:53:52.231Z,11.87
2018-10-19T21:56:21.343Z,13.97
2018-10-19T21:58:50.253Z,14.77
2018-10-19T22:01:19.274Z,17.47
2018-10-19T22:03:48.320Z,13.33
2018-10-19T22:06:17.334Z,11.47
2018-10-19T22:08:46.397Z,16.53
2018-10-19T22:11:15.428Z,9.40
2018-10-19T22:13:44.433Z,13.07
2018-10-19T22:16:13.490Z,14.07
2018-10-19T22:18:42.530Z,10.40
2018-10-19T22:21:11.637Z,10.33
2018-10-19T22:23:40.633Z,12.03
2018-10-19T22:26:09.854Z,10.67
2018-10-19T22:28:38.810Z,12.27
2018-10-19T22:31:08.059Z,14.07
2018-10-19T22:33:36.986Z,12.67
2018-10-19T22:36:06.080Z,12.50
2018-10-19T22:38:35.089Z,12.80
2018-10-19T22:41:04.089Z,14.03
2018-10-19T22:43:33.142Z,14.00
2018-10-19T22:46:02.324Z,13.33
2018-10-19T22:48:31.315Z,16.73
2018-10-19T22:51:00.256Z,14.83
2018-10-19T22:53:29.205Z,12.43
2018-10-19T22:55:58.126Z,12.30
2018-10-19T22:58:27.151Z,13.90
2018-10-19T23:00:56.386Z,14.60
2018-10-19T23:03:25.430Z,13.30
2018-10-19T23:05:54.510Z,13.90
2018-10-19T23:08:23.717Z,15.97
2018-10-19T23:10:52.699Z,16.30
2018-10-19T23:13:21.718Z,13.07
2018-10-19T23:15:50.603Z,15.73
2018-10-19T23:18:19.696Z,17.87
2018-10-19T23:20:48.677Z,21.30
2018-10-19T23:23:17.680Z,16.00
2018-10-19T23:25:46.705Z,13.70
2018-10-19T23:28:15.709Z,12.70
2018-10-19T23:30:44.697Z,14.20
2018-10-19T23:33:13.686Z,12.50
2018-10-19T23:35:42.653Z,10.53
2018-10-19T23:38:11.592Z,14.80
2018-10-19T23:40:40.522Z,11.03
2018-10-19T23:43:09.567Z,15.73
2018-10-19T23:45:38.620Z,15.20
2018-10-19T23:48:07.644Z,8.83
2018-10-19T23:50:36.556Z,11.77
2018-10-19T23:53:05.841Z,9.33
2018-10-19T23:55:34.878Z,11.37
2018-10-19T23:58:04.078Z,10.17
